Time;durP1;ratioP1;P1;durP2;ratioP2;P2;SDS_P1;SDS_P2;PMS_P1;PMS_P2;Temp;Humidity;BMP_temperature;BMP_pressure;BME280_temperature;BME280_humidity;BME280_pressure;Samples;Min_cycle;Max_cycle;Signal;HPM_P1;HPM_P2
2020/12/05 00:01:06;;;;;;;2.30;2.08;;;17.60;56.20;;;;;;5045071;28;20254;-62
2020/12/05 00:03:31;;;;;;;2.65;1.60;;;17.50;56.10;;;;;;5044782;28;20210;-60
2020/12/05 00:05:57;;;;;;;2.13;1.40;;;17.50;56.10;;;;;;5044796;28;20179;-60
2020/12/05 00:08:23;;;;;;;1.85;1.45;;;17.50;56.10;;;;;;5044945;28;20175;-59
2020/12/05 00:10:48;;;;;;;2.58;1.50;;;17.50;56.10;;;;;;5044892;28;20625;-60
2020/12/05 00:13:14;;;;;;;2.15;1.95;;;17.50;56.10;;;;;;5044997;28;20287;-60
2020/12/05 00:15:40;;;;;;;1.98;1.77;;;17.40;56.20;;;;;;5044993;28;20191;-61
2020/12/05 00:18:05;;;;;;;3.00;1.70;;;17.50;56.20;;;;;;5044843;28;20186;-61
2020/12/05 00:20:31;;;;;;;2.55;1.65;;;17.50;56.10;;;;;;5044376;28;20179;-60
2020/12/05 00:22:56;;;;;;;1.30;1.20;;;17.50;56.10;;;;;;5044493;28;20222;-60
2020/12/05 00:25:22;;;;;;;1.98;1.70;;;17.40;56.10;;;;;;5044590;28;20663;-60
2020/12/05 00:27:47;;;;;;;2.50;1.50;;;17.40;56.10;;;;;;5044669;28;20568;-60
2020/12/05 00:30:13;;;;;;;1.85;1.65;;;17.40;56.10;;;;;;5044693;28;20232;-61
2020/12/05 00:32:39;;;;;;;1.60;1.50;;;17.40;56.10;;;;;;5044352;28;20201;-59
2020/12/05 00:35:05;;;;;;;2.03;1.20;;;17.30;56.00;;;;;;5044346;28;20628;-60
2020/12/05 00:37:30;;;;;;;2.22;1.77;;;17.40;56.00;;;;;;5044489;28;20186;-60
2020/12/05 00:39:56;;;;;;;2.17;1.42;;;17.40;56.10;;;;;;5044341;28;20177;-61
2020/12/05 00:42:21;;;;;;;1.77;1.40;;;17.30;56.00;;;;;;5044609;28;20183;-61
2020/12/05 00:44:47;;;;;;;1.25;1.20;;;17.30;56.00;;;;;;5026158;28;20171;-60
2020/12/05 00:47:13;;;;;;;1.65;1.55;;;17.30;56.00;;;;;;5044127;28;20282;-61
2020/12/05 00:49:38;;;;;;;1.52;1.42;;;17.30;55.90;;;;;;5044488;28;20659;-61
2020/12/05 00:52:04;;;;;;;1.52;1.42;;;17.20;55.90;;;;;;5043865;28;20182;-62
2020/12/05 00:54:29;;;;;;;1.60;1.40;;;17.30;55.90;;;;;;5043998;28;20175;-61
2020/12/05 00:56:55;;;;;;;1.85;1.58;;;17.20;55.90;;;;;;5043645;28;20175;-60
2020/12/05 00:59:20;;;;;;;2.28;1.67;;;17.20;55.90;;;;;;5043894;28;20175;-62
2020/12/05 01:01:52;;;;;;;1.50;1.40;;;17.20;55.90;;;;;;5044054;28;21010;-61
2020/12/05 01:04:18;;;;;;;1.73;1.40;;;17.20;55.90;;;;;;5043850;28;20522;-61
2020/12/05 01:06:44;;;;;;;3.40;1.45;;;17.20;55.90;;;;;;5044080;28;20671;-60
2020/12/05 01:09:09;;;;;;;1.77;1.23;;;17.20;55.80;;;;;;5044055;28;20178;-60
2020/12/05 01:11:35;;;;;;;1.52;1.42;;;17.20;55.90;;;;;;5044105;28;20178;-61
2020/12/05 01:14:01;;;;;;;2.15;1.23;;;17.10;55.90;;;;;;5043634;28;20175;-61
2020/12/05 01:16:27;;;;;;;1.70;1.48;;;17.20;55.80;;;;;;5043977;28;20237;-61
2020/12/05 01:18:53;;;;;;;1.67;1.58;;;17.20;55.80;;;;;;5043688;28;20282;-61
2020/12/05 01:21:18;;;;;;;1.83;1.30;;;17.10;55.80;;;;;;5044008;28;20258;-62
2020/12/05 01:23:44;;;;;;;1.88;1.67;;;17.10;55.80;;;;;;5026075;28;20285;-61
2020/12/05 01:26:10;;;;;;;2.80;1.48;;;17.10;55.80;;;;;;5043899;28;20833;-61
2020/12/05 01:28:36;;;;;;;1.85;1.52;;;17.10;55.80;;;;;;5043689;28;20174;-61
2020/12/05 01:31:02;;;;;;;1.05;1.00;;;17.10;55.80;;;;;;5043874;28;20241;-61
2020/12/05 01:33:29;;;;;;;1.38;1.27;;;17.10;55.80;;;;;;5043886;28;20282;-61
2020/12/05 01:35:55;;;;;;;2.30;1.50;;;17.00;55.70;;;;;;5043350;28;20164;-60
2020/12/05 01:38:20;;;;;;;1.65;1.55;;;17.10;55.90;;;;;;5043400;28;20270;-61
2020/12/05 01:40:51;;;;;;;1.35;1.25;;;17.10;55.80;;;;;;5043743;28;20209;-61
2020/12/05 01:43:17;;;;;;;1.40;1.30;;;17.00;55.70;;;;;;5043508;28;20178;-61
2020/12/05 01:45:42;;;;;;;1.42;1.33;;;17.00;55.70;;;;;;5043497;28;20179;-61
2020/12/05 01:48:08;;;;;;;2.63;1.60;;;17.00;55.70;;;;;;5046127;28;20350;-61
2020/12/05 01:50:33;;;;;;;2.17;1.38;;;17.00;55.70;;;;;;5029989;28;20828;-61
2020/12/05 01:52:59;;;;;;;2.35;1.38;;;17.00;55.70;;;;;;5029608;28;20325;-60
2020/12/05 01:55:24;;;;;;;1.88;1.45;;;17.00;55.70;;;;;;5029564;28;20203;-60
2020/12/05 01:57:50;;;;;;;1.58;1.33;;;16.90;55.70;;;;;;5047268;28;20187;-60
2020/12/05 02:00:16;;;;;;;1.33;1.23;;;17.00;55.70;;;;;;5047224;28;20183;-61
2020/12/05 02:02:42;;;;;;;1.48;1.38;;;17.00;55.70;;;;;;5047177;28;20182;-60
2020/12/05 02:05:13;;;;;;;1.38;1.27;;;16.90;55.70;;;;;;5047148;28;20171;-61
2020/12/05 02:07:45;;;;;;;1.75;1.30;;;16.90;55.70;;;;;;5013275;28;20210;-60
2020/12/05 02:10:11;;;;;;;1.50;1.33;;;16.90;55.70;;;;;;5029663;28;20163;-60
2020/12/05 02:12:50;;;;;;;1.35;1.25;;;16.90;55.70;;;;;;5029112;28;20308;-61
2020/12/05 02:15:33;;;;;;;1.55;1.45;;;16.90;55.70;;;;;;5029359;28;20493;-60
2020/12/05 02:18:00;;;;;;;1.42;1.33;;;16.90;55.70;;;;;;5029290;28;20582;-61
2020/12/05 02:20:27;;;;;;;1.92;1.58;;;16.90;55.70;;;;;;5028722;28;20718;-60
2020/12/05 02:22:53;;;;;;;1.65;1.25;;;16.90;55.70;;;;;;5029327;28;20194;-60
2020/12/05 02:25:19;;;;;;;2.25;1.73;;;16.90;55.60;;;;;;5046861;28;20180;-61
2020/12/05 02:27:44;;;;;;;1.48;1.38;;;16.90;55.60;;;;;;5012577;28;20273;-60
2020/12/05 02:30:10;;;;;;;2.13;1.60;;;16.80;55.60;;;;;;5046530;28;20657;-59
2020/12/05 02:32:36;;;;;;;1.40;1.30;;;16.80;55.60;;;;;;5046513;28;20175;-60
2020/12/05 02:35:02;;;;;;;1.80;1.70;;;16.80;55.60;;;;;;5046474;28;20613;-61
2020/12/05 02:37:28;;;;;;;1.73;1.58;;;16.80;55.60;;;;;;5046731;28;20575;-61
2020/12/05 02:39:54;;;;;;;1.20;1.10;;;16.80;55.70;;;;;;5012198;28;20171;-60
2020/12/05 02:42:19;;;;;;;1.60;1.50;;;16.80;55.60;;;;;;5028745;28;20549;-60
2020/12/05 02:44:51;;;;;;;1.50;1.40;;;16.80;55.70;;;;;;5012242;28;20180;-60
2020/12/05 02:47:16;;;;;;;1.77;1.67;;;16.70;55.60;;;;;;5028974;28;20203;-61
2020/12/05 02:49:42;;;;;;;1.52;1.40;;;16.80;55.60;;;;;;5046100;28;20183;-61
2020/12/05 02:52:08;;;;;;;1.60;1.50;;;16.70;55.60;;;;;;5046743;28;20539;-60
2020/12/05 02:54:34;;;;;;;1.67;1.58;;;16.70;55.50;;;;;;5046290;28;20179;-60
2020/12/05 02:56:59;;;;;;;1.60;1.38;;;16.70;55.60;;;;;;5046087;28;20380;-60
2020/12/05 02:59:26;;;;;;;1.50;1.40;;;16.70;55.70;;;;;;5046059;28;21025;-61
2020/12/05 03:01:52;;;;;;;1.50;1.40;;;16.70;55.60;;;;;;5046253;28;20286;-60
2020/12/05 03:04:17;;;;;;;1.50;1.40;;;16.70;55.60;;;;;;5045960;28;20306;-61
2020/12/05 03:06:43;;;;;;;2.00;1.80;;;16.70;55.60;;;;;;5045801;28;20649;-59
2020/12/05 03:09:08;;;;;;;1.55;1.30;;;16.70;55.60;;;;;;5045841;28;20643;-61
2020/12/05 03:11:34;;;;;;;1.55;1.45;;;16.70;55.60;;;;;;5045829;28;20903;-61
2020/12/05 03:14:00;;;;;;;1.50;1.40;;;16.70;55.50;;;;;;5027749;28;20288;-60
2020/12/05 03:16:25;;;;;;;1.58;1.48;;;16.70;55.60;;;;;;5045719;28;20189;-61
2020/12/05 03:18:51;;;;;;;1.67;1.58;;;16.70;55.60;;;;;;5045786;28;20694;-60
2020/12/05 03:21:16;;;;;;;1.60;1.50;;;16.70;55.60;;;;;;5045993;28;20163;-61
2020/12/05 03:23:45;;;;;;;1.60;1.48;;;16.60;55.50;;;;;;5045784;28;20187;-60
2020/12/05 03:26:11;;;;;;;1.55;1.38;;;16.60;55.50;;;;;;5045705;28;20184;-60
2020/12/05 03:28:37;;;;;;;1.80;1.70;;;16.60;55.60;;;;;;5027986;28;20528;-61
2020/12/05 03:31:03;;;;;;;1.55;1.45;;;16.60;55.60;;;;;;5044879;28;20176;-60
2020/12/05 03:33:28;;;;;;;1.70;1.55;;;16.60;55.60;;;;;;5045560;28;20600;-60
2020/12/05 03:35:54;;;;;;;1.60;1.50;;;16.60;55.60;;;;;;5045470;28;20237;-60
2020/12/05 03:38:20;;;;;;;1.50;1.40;;;16.60;55.60;;;;;;5045226;28;20176;-61
2020/12/05 03:40:45;;;;;;;1.63;1.52;;;16.60;55.90;;;;;;5045292;28;20179;-60
2020/12/05 03:43:11;;;;;;;1.60;1.50;;;16.60;55.60;;;;;;5045273;28;20175;-60
2020/12/05 03:45:36;;;;;;;1.55;1.45;;;16.60;55.60;;;;;;5045339;28;20175;-61
2020/12/05 03:48:02;;;;;;;1.60;1.50;;;16.50;55.50;;;;;;5045341;28;20413;-61
2020/12/05 03:50:27;;;;;;;1.80;1.63;;;16.60;55.60;;;;;;5045011;28;20171;-60
2020/12/05 03:52:53;;;;;;;1.98;1.30;;;16.50;55.60;;;;;;5045353;28;20178;-61
2020/12/05 03:55:18;;;;;;;1.45;1.35;;;16.50;55.60;;;;;;5045323;28;20179;-60
2020/12/05 03:57:44;;;;;;;1.80;1.70;;;16.50;55.60;;;;;;5045168;28;20175;-60
2020/12/05 04:00:09;;;;;;;2.55;1.40;;;16.50;55.60;;;;;;5045016;28;20167;-61
2020/12/05 04:02:35;;;;;;;1.60;1.50;;;16.50;55.50;;;;;;5045161;28;20646;-60
2020/12/05 04:05:00;;;;;;;1.50;1.40;;;16.50;55.60;;;;;;5045171;28;20174;-61
2020/12/05 04:07:26;;;;;;;1.40;1.30;;;16.50;55.60;;;;;;5044919;28;20293;-61
2020/12/05 04:09:52;;;;;;;1.63;1.52;;;16.50;55.60;;;;;;5026886;28;20182;-61
2020/12/05 04:12:17;;;;;;;1.50;1.40;;;16.50;55.60;;;;;;5044815;28;20175;-61
2020/12/05 04:14:43;;;;;;;1.60;1.50;;;16.50;55.60;;;;;;5044778;28;20311;-61
2020/12/05 04:17:08;;;;;;;1.50;1.40;;;16.50;55.60;;;;;;5044813;28;20206;-61
2020/12/05 04:19:34;;;;;;;1.52;1.42;;;16.40;55.60;;;;;;5045011;28;20175;-61
2020/12/05 04:22:01;;;;;;;1.55;1.45;;;16.40;55.50;;;;;;5044708;28;20185;-62
2020/12/05 04:24:27;;;;;;;1.50;1.40;;;16.40;55.60;;;;;;5027200;28;20233;-60
2020/12/05 04:26:53;;;;;;;1.40;1.30;;;16.40;55.50;;;;;;5044574;28;20214;-59
2020/12/05 04:29:19;;;;;;;1.65;1.55;;;16.40;55.50;;;;;;5044883;28;20211;-59
2020/12/05 04:31:44;;;;;;;1.73;1.63;;;16.40;55.50;;;;;;5044449;28;20286;-60
2020/12/05 04:34:10;;;;;;;1.40;1.30;;;16.40;55.50;;;;;;5044326;28;20182;-59
2020/12/05 04:36:35;;;;;;;1.92;1.60;;;16.40;55.50;;;;;;5044333;28;20174;-59
2020/12/05 04:39:01;;;;;;;1.52;1.42;;;16.40;55.50;;;;;;5044213;28;20179;-60
2020/12/05 04:41:26;;;;;;;1.50;1.40;;;16.40;55.50;;;;;;5044348;28;20182;-60
2020/12/05 04:43:52;;;;;;;1.42;1.33;;;16.40;55.50;;;;;;5044214;28;20185;-60
2020/12/05 04:46:18;;;;;;;1.48;1.30;;;16.40;55.50;;;;;;5026547;28;20179;-60
2020/12/05 04:48:43;;;;;;;1.42;1.33;;;16.40;55.50;;;;;;5026562;28;20181;-60
2020/12/05 04:51:16;;;;;;;1.60;1.50;;;16.30;55.50;;;;;;5044169;28;20175;-59
2020/12/05 04:53:44;;;;;;;1.70;1.60;;;16.30;55.50;;;;;;5027276;28;20236;-60
2020/12/05 04:56:10;;;;;;;1.70;1.48;;;16.30;55.50;;;;;;5026944;28;20185;-60
2020/12/05 04:58:35;;;;;;;1.60;1.50;;;16.30;55.50;;;;;;5010371;28;20175;-60
2020/12/05 05:01:01;;;;;;;1.60;1.50;;;16.30;55.50;;;;;;5009421;28;20266;-60
2020/12/05 05:03:27;;;;;;;1.60;1.50;;;16.30;55.50;;;;;;5026298;28;20179;-59
2020/12/05 05:05:55;;;;;;;1.73;1.50;;;16.30;55.50;;;;;;5043918;28;20167;-60
2020/12/05 05:08:23;;;;;;;2.05;1.67;;;16.20;55.50;;;;;;5026766;28;20989;-60
2020/12/05 05:10:49;;;;;;;1.60;1.50;;;16.30;55.50;;;;;;5043826;28;20618;-61
2020/12/05 05:13:23;;;;;;;1.52;1.42;;;16.20;55.40;;;;;;5026195;28;20262;-60
2020/12/05 05:15:48;;;;;;;1.42;1.33;;;16.30;55.50;;;;;;5044077;28;20169;-61
2020/12/05 05:18:14;;;;;;;1.40;1.30;;;16.20;55.50;;;;;;5044045;28;20175;-62
2020/12/05 05:20:43;;;;;;;1.48;1.40;;;16.20;55.40;;;;;;5043872;28;20186;-61
2020/12/05 05:23:18;;;;;;;1.25;1.15;;;16.30;55.50;;;;;;5046705;28;20198;-61
2020/12/05 05:26:00;;;;;;;1.40;1.30;;;16.20;55.90;;;;;;5029608;28;20543;-61
2020/12/05 05:28:31;;;;;;;1.50;1.40;;;16.20;55.40;;;;;;5047643;28;20664;-60
2020/12/05 05:31:21;;;;;;;1.30;1.20;;;16.20;55.40;;;;;;5048104;28;20174;-60
2020/12/05 05:33:48;;;;;;;1.73;1.63;;;16.20;55.50;;;;;;5047906;28;20175;-60
2020/12/05 05:36:28;;;;;;;1.50;1.40;;;16.20;55.40;;;;;;5048018;28;20214;-61
2020/12/05 05:39:10;;;;;;;1.50;1.40;;;16.20;55.40;;;;;;5032042;28;20236;-61
2020/12/05 05:41:39;;;;;;;1.17;1.17;;;16.20;55.50;;;;;;5047782;28;20179;-62
2020/12/05 05:44:13;;;;;;;1.50;1.40;;;16.20;55.40;;;;;;5047449;28;20163;-60
2020/12/05 05:46:41;;;;;;;2.00;1.50;;;16.20;55.50;;;;;;5047359;28;20203;-60
2020/12/05 05:49:07;;;;;;;1.40;1.30;;;16.10;55.40;;;;;;5047594;28;20185;-61
2020/12/05 05:51:46;;;;;;;1.50;1.40;;;16.10;55.40;;;;;;5047487;28;20175;-60
2020/12/05 05:54:14;;;;;;;1.38;1.27;;;16.10;55.40;;;;;;5047201;28;20929;-60
2020/12/05 05:56:52;;;;;;;1.60;1.50;;;16.10;55.40;;;;;;5047202;28;20290;-60
2020/12/05 05:59:17;;;;;;;1.48;1.38;;;16.10;55.40;;;;;;5030562;28;20167;-60
2020/12/05 06:01:43;;;;;;;1.50;1.40;;;16.10;55.40;;;;;;5029544;28;20651;-59
2020/12/05 06:04:09;;;;;;;2.58;1.73;;;16.10;55.40;;;;;;5013280;28;20525;-60
2020/12/05 06:06:34;;;;;;;1.27;1.17;;;16.10;55.40;;;;;;5013305;28;20562;-60
2020/12/05 06:09:02;;;;;;;1.50;1.40;;;16.20;55.50;;;;;;5013065;28;20183;-58
2020/12/05 06:11:28;;;;;;;1.50;1.30;;;16.20;55.60;;;;;;5047160;28;20168;-60
2020/12/05 06:13:53;;;;;;;1.33;1.23;;;16.30;55.80;;;;;;5013003;28;20543;-60
2020/12/05 06:16:19;;;;;;;1.50;1.40;;;16.60;55.40;;;;;;5013228;28;20241;-61
2020/12/05 06:18:44;;;;;;;1.63;1.52;;;16.80;55.30;;;;;;5012878;28;20179;-60
2020/12/05 06:21:10;;;;;;;1.83;1.70;;;17.00;54.90;;;;;;5012574;28;20183;-59
2020/12/05 06:23:45;;;;;;;1.52;1.42;;;17.30;54.40;;;;;;5046965;28;20556;-60
2020/12/05 06:26:12;;;;;;;0.98;0.98;;;17.70;53.70;;;;;;5012309;28;20228;-60
2020/12/05 06:28:38;;;;;;;1.50;1.40;;;17.90;53.20;;;;;;5029075;28;20262;-59
2020/12/05 06:31:04;;;;;;;1.63;1.30;;;18.10;53.00;;;;;;5046590;28;20182;-60
2020/12/05 06:33:39;;;;;;;1.45;1.35;;;18.20;52.70;;;;;;5046087;28;20229;-59
2020/12/05 06:36:26;;;;;;;1.63;1.40;;;18.30;52.50;;;;;;5029399;28;20232;-61
2020/12/05 06:39:10;;;;;;;1.60;1.50;;;18.40;52.40;;;;;;5046498;28;20186;-60
2020/12/05 06:41:41;;;;;;;1.30;1.20;;;18.40;52.30;;;;;;5028980;28;20201;-61
2020/12/05 06:44:40;;;;;;;1.40;1.30;;;18.50;52.30;;;;;;5046250;28;20220;-60
2020/12/05 06:47:08;;;;;;;1.45;1.20;;;18.50;52.30;;;;;;4991485;28;20589;-61
2020/12/05 06:49:39;;;;;;;1.33;1.23;;;18.50;52.30;;;;;;5046511;28;20174;-61
2020/12/05 06:52:24;;;;;;;1.27;1.20;;;18.50;52.20;;;;;;5046099;28;20220;-61
2020/12/05 06:54:55;;;;;;;1.30;1.20;;;18.60;52.20;;;;;;5046840;28;20167;-60
2020/12/05 06:57:28;;;;;;;1.30;1.20;;;18.50;52.20;;;;;;5046067;28;20406;-60
2020/12/05 07:00:17;;;;;;;1.40;1.30;;;18.50;52.30;;;;;;5046072;28;20664;-61
2020/12/05 07:02:56;;;;;;;1.33;1.23;;;18.50;52.30;;;;;;5046028;28;20525;-60
2020/12/05 07:05:23;;;;;;;2.65;1.33;;;18.50;52.30;;;;;;5045990;28;20200;-59
2020/12/05 07:07:56;;;;;;;1.20;1.20;;;18.50;52.30;;;;;;5045787;28;20298;-61
2020/12/05 07:10:42;;;;;;;1.23;1.20;;;18.40;52.40;;;;;;5046123;28;20938;-59
2020/12/05 07:13:22;;;;;;;2.42;1.30;;;18.40;52.50;;;;;;5028071;28;20995;-60
2020/12/05 07:15:47;;;;;;;0.98;0.98;;;18.30;52.60;;;;;;5046084;28;20257;-60
2020/12/05 07:18:26;;;;;;;1.60;1.10;;;18.20;52.80;;;;;;5028503;28;20171;-61
2020/12/05 07:20:53;;;;;;;1.55;1.45;;;18.10;53.00;;;;;;5045907;28;20201;-61
2020/12/05 07:23:18;;;;;;;1.55;1.35;;;18.10;53.10;;;;;;5027687;28;20788;-60
2020/12/05 07:25:44;;;;;;;1.13;1.13;;;18.00;53.10;;;;;;5045631;28;20179;-59
2020/12/05 07:28:10;;;;;;;1.10;1.10;;;18.00;53.10;;;;;;5045494;28;20222;-60
2020/12/05 07:30:35;;;;;;;1.40;1.30;;;18.00;53.20;;;;;;5045467;28;20548;-59
2020/12/05 07:33:01;;;;;;;1.40;1.30;;;18.00;53.10;;;;;;5045603;28;20180;-60
2020/12/05 07:35:26;;;;;;;1.30;1.20;;;18.00;53.10;;;;;;5011013;28;20190;-60
2020/12/05 07:37:52;;;;;;;1.15;1.10;;;18.10;53.10;;;;;;5045669;28;20186;-61
2020/12/05 07:40:26;;;;;;;1.20;1.10;;;18.10;53.10;;;;;;5045341;28;20183;-60
2020/12/05 07:42:52;;;;;;;1.40;1.30;;;18.10;53.00;;;;;;5045275;28;20653;-61
2020/12/05 07:45:17;;;;;;;1.17;1.08;;;18.10;53.10;;;;;;5044604;28;20225;-61
2020/12/05 07:47:43;;;;;;;1.30;1.20;;;18.00;53.10;;;;;;5010918;28;20684;-61
2020/12/05 07:50:09;;;;;;;1.17;1.17;;;17.90;53.20;;;;;;5045131;28;20540;-61
2020/12/05 07:52:38;;;;;;;1.00;0.95;;;17.80;53.30;;;;;;5044851;28;20629;-62
2020/12/05 07:55:05;;;;;;;1.08;1.00;;;17.80;53.40;;;;;;5027848;28;20819;-60
2020/12/05 07:57:32;;;;;;;1.35;1.20;;;17.80;53.60;;;;;;5027275;28;20589;-60
2020/12/05 08:00:08;;;;;;;2.08;1.20;;;17.70;53.50;;;;;;5045276;28;20645;-61
2020/12/05 08:02:51;;;;;;;1.10;1.00;;;17.70;53.60;;;;;;5027255;28;20171;-61
2020/12/05 08:05:29;;;;;;;1.48;1.38;;;17.70;53.50;;;;;;5027337;28;20179;-61
2020/12/05 08:08:00;;;;;;;1.15;1.15;;;17.80;53.50;;;;;;5044569;28;20256;-61
2020/12/05 08:10:28;;;;;;;1.63;1.30;;;17.80;53.40;;;;;;5044749;28;20179;-60
2020/12/05 08:13:12;;;;;;;1.05;1.00;;;17.80;53.40;;;;;;5010898;28;20200;-61
2020/12/05 08:15:37;;;;;;;1.08;1.08;;;17.70;53.50;;;;;;5027857;28;20181;-61
2020/12/05 08:18:03;;;;;;;1.10;1.00;;;17.70;53.50;;;;;;5026995;28;20182;-61
2020/12/05 08:20:31;;;;;;;1.65;1.33;;;17.80;53.60;;;;;;5010480;28;20187;-61
2020/12/05 08:22:58;;;;;;;1.30;1.20;;;17.80;53.50;;;;;;5044255;28;20201;-61
2020/12/05 08:25:23;;;;;;;1.30;1.20;;;17.80;53.50;;;;;;5044512;28;20179;-60
2020/12/05 08:27:49;;;;;;;1.55;1.45;;;17.80;53.40;;;;;;5044434;28;20215;-60
2020/12/05 08:30:14;;;;;;;1.15;1.10;;;17.80;53.40;;;;;;5026828;28;21014;-60
2020/12/05 08:32:40;;;;;;;1.30;1.20;;;17.80;53.40;;;;;;5009765;28;20186;-60
2020/12/05 08:35:09;;;;;;;1.70;1.15;;;17.80;53.40;;;;;;5026582;28;20172;-66
2020/12/05 08:37:35;;;;;;;1.52;1.30;;;17.70;53.70;;;;;;5044596;28;20680;-66
2020/12/05 08:40:01;;;;;;;6.97;1.80;;;17.70;53.70;;;;;;5026046;28;20190;-66
2020/12/05 08:42:26;;;;;;;1.33;1.20;;;17.70;53.90;;;;;;5044266;28;20175;-64
2020/12/05 08:44:52;;;;;;;1.77;1.67;;;17.70;53.80;;;;;;5044209;28;20202;-63
2020/12/05 08:47:18;;;;;;;1.73;1.60;;;17.70;53.80;;;;;;5043705;28;20211;-64
2020/12/05 08:49:45;;;;;;;2.05;1.83;;;17.80;54.00;;;;;;5044308;28;20179;-63
2020/12/05 08:52:11;;;;;;;2.45;1.40;;;17.80;54.10;;;;;;5010080;28;20223;-64
2020/12/05 08:54:50;;;;;;;1.90;1.42;;;17.90;54.00;;;;;;5044097;28;20648;-61
2020/12/05 08:57:16;;;;;;;1.48;1.38;;;17.90;53.90;;;;;;5026657;28;20178;-64
2020/12/05 08:59:42;;;;;;;1.98;1.48;;;18.00;54.10;;;;;;5010253;28;20190;-63
2020/12/05 09:02:08;;;;;;;2.28;1.30;;;18.00;54.10;;;;;;5043763;28;20985;-63
2020/12/05 09:04:34;;;;;;;2.25;1.40;;;18.00;54.20;;;;;;5044217;28;20189;-63
2020/12/05 09:07:26;;;;;;;1.70;1.60;;;18.00;54.30;;;;;;5044439;28;20214;-62
2020/12/05 09:09:52;;;;;;;1.98;1.75;;;18.00;54.40;;;;;;5038805;28;20205;-63
2020/12/05 09:12:18;;;;;;;1.52;1.42;;;18.00;54.50;;;;;;5043723;28;20183;-63
2020/12/05 09:14:47;;;;;;;3.85;1.88;;;18.00;54.30;;;;;;5026198;28;20207;-63
2020/12/05 09:17:27;;;;;;;2.10;1.77;;;17.90;54.40;;;;;;5043721;28;20181;-64
2020/12/05 09:19:58;;;;;;;2.08;1.60;;;17.90;54.60;;;;;;5025976;28;20172;-63
2020/12/05 09:22:31;;;;;;;6.00;1.70;;;17.80;54.80;;;;;;5043607;28;20167;-63
2020/12/05 09:24:58;;;;;;;2.30;2.08;;;17.70;54.80;;;;;;5043717;28;20171;-64
2020/12/05 09:27:41;;;;;;;4.15;1.60;;;17.70;55.00;;;;;;5026031;28;20210;-62
2020/12/05 09:30:11;;;;;;;1.92;1.70;;;17.70;55.00;;;;;;5026246;28;20557;-63
2020/12/05 09:32:41;;;;;;;1.80;1.70;;;17.70;55.00;;;;;;5043872;28;20524;-63
2020/12/05 09:35:07;;;;;;;2.58;1.70;;;17.70;55.10;;;;;;5043675;28;20621;-63
2020/12/05 09:37:32;;;;;;;2.90;1.80;;;17.60;55.10;;;;;;5043641;28;20183;-62
2020/12/05 09:39:58;;;;;;;2.85;1.60;;;17.60;55.20;;;;;;5043477;28;20587;-64
2020/12/05 09:42:23;;;;;;;2.10;1.55;;;17.60;55.20;;;;;;5043320;28;21013;-63
2020/12/05 09:44:50;;;;;;;2.35;1.70;;;17.60;55.30;;;;;;5043867;28;20187;-64
2020/12/05 09:47:15;;;;;;;1.92;1.50;;;17.50;55.40;;;;;;5043823;28;20207;-63
2020/12/05 09:49:41;;;;;;;3.83;1.90;;;17.50;55.50;;;;;;5043626;28;20225;-63
2020/12/05 09:52:06;;;;;;;3.83;1.60;;;17.40;55.70;;;;;;5043370;28;20179;-67
2020/12/05 09:54:32;;;;;;;2.55;1.58;;;17.50;55.90;;;;;;5043394;28;20183;-67
2020/12/05 09:56:57;;;;;;;3.20;1.83;;;17.50;55.90;;;;;;5043360;28;20598;-65
2020/12/05 09:59:23;;;;;;;1.92;1.63;;;17.40;55.90;;;;;;5043522;28;20250;-67
2020/12/05 10:01:48;;;;;;;3.15;2.25;;;17.40;55.70;;;;;;5043493;28;20203;-68
2020/12/05 10:04:16;;;;;;;2.00;1.73;;;17.40;55.80;;;;;;5043150;28;20233;-68
2020/12/05 10:06:42;;;;;;;4.03;2.05;;;17.40;55.90;;;;;;5043231;28;20211;-67
2020/12/05 10:09:07;;;;;;;4.57;1.83;;;17.40;55.60;;;;;;5046241;28;20705;-67
2020/12/05 10:11:33;;;;;;;2.38;2.03;;;17.30;55.70;;;;;;5047418;28;20544;-67
2020/12/05 10:13:58;;;;;;;1.95;1.63;;;17.30;55.70;;;;;;5047057;28;20217;-68
2020/12/05 10:16:24;;;;;;;4.43;1.92;;;17.30;55.70;;;;;;5055372;28;20171;-68
2020/12/05 10:18:49;;;;;;;3.05;2.10;;;17.30;55.70;;;;;;5055009;28;20185;-69
2020/12/05 10:21:15;;;;;;;2.28;1.90;;;17.30;55.70;;;;;;5055763;28;20714;-69
2020/12/05 10:23:41;;;;;;;1.98;1.60;;;17.30;55.60;;;;;;5057328;28;20566;-68
2020/12/05 10:26:07;;;;;;;2.58;2.00;;;17.20;55.70;;;;;;5054337;28;20303;-68
2020/12/05 10:28:33;;;;;;;2.03;1.90;;;17.30;55.70;;;;;;5054536;28;20242;-68
2020/12/05 10:30:58;;;;;;;3.47;2.75;;;17.30;55.70;;;;;;5056907;28;20637;-66
2020/12/05 10:33:24;;;;;;;2.33;2.13;;;17.20;55.70;;;;;;5053950;28;20225;-67
2020/12/05 10:35:49;;;;;;;4.60;2.10;;;17.20;55.50;;;;;;5063520;28;20198;-64
2020/12/05 10:38:15;;;;;;;4.07;1.98;;;17.20;55.80;;;;;;5067076;28;20185;-63
2020/12/05 10:40:40;;;;;;;2.95;1.80;;;17.20;55.70;;;;;;5066493;28;21014;-63
2020/12/05 10:43:06;;;;;;;3.15;1.63;;;17.20;55.50;;;;;;5066275;28;20240;-63
2020/12/05 10:45:31;;;;;;;2.63;2.10;;;17.20;55.40;;;;;;5066653;28;20186;-62
2020/12/05 10:47:58;;;;;;;4.63;1.70;;;17.20;55.50;;;;;;5066368;28;20218;-63
2020/12/05 10:50:23;;;;;;;4.63;1.85;;;17.20;55.80;;;;;;5065812;28;20279;-64
2020/12/05 10:52:49;;;;;;;2.05;1.67;;;17.30;55.90;;;;;;5066134;28;20247;-64
2020/12/05 10:55:14;;;;;;;3.97;1.98;;;17.40;56.00;;;;;;5066134;28;20170;-63
2020/12/05 10:57:40;;;;;;;3.88;1.60;;;17.50;55.90;;;;;;5066265;28;20189;-61
2020/12/05 11:00:05;;;;;;;3.75;1.80;;;17.60;55.70;;;;;;5066397;28;20936;-62
2020/12/05 11:02:31;;;;;;;3.42;1.40;;;17.80;55.40;;;;;;5065933;28;20175;-61
2020/12/05 11:04:56;;;;;;;2.92;1.67;;;18.10;55.00;;;;;;5066036;28;20196;-62
2020/12/05 11:07:22;;;;;;;2.33;1.63;;;18.40;54.40;;;;;;5066175;28;20312;-61
2020/12/05 11:09:47;;;;;;;1.70;1.60;;;18.70;54.00;;;;;;5066129;28;20655;-67
2020/12/05 11:12:13;;;;;;;2.78;1.60;;;19.00;53.50;;;;;;5065928;28;20545;-64
2020/12/05 11:14:39;;;;;;;2.53;1.42;;;19.30;53.10;;;;;;5065947;28;20224;-67
2020/12/05 11:17:04;;;;;;;3.40;1.80;;;19.40;52.80;;;;;;5065718;28;20245;-64
2020/12/05 11:19:30;;;;;;;3.58;1.40;;;19.50;52.70;;;;;;5064427;28;20670;-63
2020/12/05 11:21:55;;;;;;;6.93;1.92;;;19.70;52.40;;;;;;5065458;28;20177;-62
2020/12/05 11:24:21;;;;;;;3.38;1.65;;;19.70;52.30;;;;;;5065486;28;20194;-62
2020/12/05 11:26:47;;;;;;;2.35;1.48;;;19.80;52.20;;;;;;5065711;28;20281;-63
2020/12/05 11:29:13;;;;;;;2.08;1.40;;;19.80;52.20;;;;;;5065561;28;20182;-62
2020/12/05 11:31:38;;;;;;;3.60;1.40;;;19.90;52.20;;;;;;5065642;28;20179;-62
2020/12/05 11:34:04;;;;;;;3.65;1.63;;;19.80;52.30;;;;;;5047637;28;20179;-64
2020/12/05 11:36:29;;;;;;;2.72;1.65;;;19.80;52.40;;;;;;5065813;28;20255;-62
2020/12/05 11:38:55;;;;;;;2.33;1.20;;;19.80;52.50;;;;;;5065813;28;20178;-62
2020/12/05 11:41:20;;;;;;;3.25;1.42;;;19.70;52.60;;;;;;5065547;28;20246;-63
2020/12/05 11:43:46;;;;;;;1.80;1.58;;;19.70;52.70;;;;;;5065194;28;20171;-64
2020/12/05 11:46:12;;;;;;;2.58;1.58;;;19.70;52.80;;;;;;5065351;28;20171;-62
2020/12/05 11:48:38;;;;;;;2.67;1.00;;;19.80;52.70;;;;;;5064923;28;20572;-63
2020/12/05 11:51:04;;;;;;;2.70;1.00;;;19.70;52.60;;;;;;5065603;28;20184;-62
2020/12/05 11:53:29;;;;;;;2.38;1.40;;;19.70;52.60;;;;;;5065538;28;20178;-63
2020/12/05 11:55:55;;;;;;;2.95;1.30;;;19.70;52.60;;;;;;5065102;28;20253;-63
2020/12/05 11:58:20;;;;;;;1.40;1.20;;;19.60;52.60;;;;;;5065104;28;20177;-63
2020/12/05 12:00:46;;;;;;;2.97;1.40;;;19.60;52.80;;;;;;5065454;28;20170;-63
2020/12/05 12:03:12;;;;;;;1.80;1.48;;;19.60;53.00;;;;;;5065345;28;20166;-63
2020/12/05 12:05:37;;;;;;;1.67;1.20;;;19.50;53.00;;;;;;5047365;28;20982;-63
2020/12/05 12:08:03;;;;;;;3.38;1.30;;;19.50;53.00;;;;;;5064798;28;21042;-64
2020/12/05 12:10:28;;;;;;;1.15;1.00;;;19.50;53.00;;;;;;5064701;28;20268;-63
2020/12/05 12:12:54;;;;;;;2.83;1.40;;;19.40;53.20;;;;;;5064544;28;20194;-62
2020/12/05 12:15:19;;;;;;;1.75;1.02;;;19.40;53.20;;;;;;5064740;28;20186;-62
2020/12/05 12:17:45;;;;;;;1.35;1.20;;;19.40;53.20;;;;;;5064538;28;20185;-63
2020/12/05 12:20:10;;;;;;;1.30;1.17;;;19.30;53.30;;;;;;5064626;28;20170;-62
2020/12/05 12:22:36;;;;;;;2.25;1.23;;;19.30;53.40;;;;;;5064450;28;20194;-61
2020/12/05 12:25:02;;;;;;;1.75;1.30;;;19.20;53.30;;;;;;5064368;28;20178;-62
2020/12/05 12:27:28;;;;;;;2.22;1.17;;;19.20;53.60;;;;;;5064427;28;20213;-63
2020/12/05 12:29:54;;;;;;;2.13;1.23;;;19.10;53.70;;;;;;5064320;28;20182;-62
2020/12/05 12:32:19;;;;;;;1.98;1.00;;;19.10;53.80;;;;;;5064050;28;20778;-63
2020/12/05 12:34:45;;;;;;;4.32;1.20;;;19.00;53.80;;;;;;5064160;28;20179;-63
2020/12/05 12:37:11;;;;;;;2.20;1.13;;;19.00;53.80;;;;;;5064424;28;20167;-62
2020/12/05 12:39:36;;;;;;;3.13;1.30;;;19.00;53.80;;;;;;5064380;28;20537;-63
2020/12/05 12:42:02;;;;;;;5.05;1.20;;;19.00;53.80;;;;;;5064235;28;20201;-63
2020/12/05 12:44:27;;;;;;;1.67;0.88;;;19.00;53.70;;;;;;5064264;28;20174;-63
2020/12/05 12:49:36;;;;;;;2.63;1.13;;;19.10;53.60;;;;;;5063851;28;20166;-64
2020/12/05 12:52:06;;;;;;;3.70;1.30;;;19.10;53.60;;;;;;5047178;28;20175;-65